Terminal Aerodrome Forecast
Issued by NWS Sterling, VA

Home | Current Version | Previous Version | Text Only | Print | Product List | Glossary On
Versions: 1 2 3 4 5 6 7 8 9 10 11 12 13 14 15 16 17 18 19 20 21 22 23
000
FTUS41 KLWX 012100 AAC
TAFIAD
TAF AMD
KIAD 012119Z 0121/0224 16006KT P6SM SCT025 OVC050
     FM012300 14006KT 6SM -RAPL OVC050
     FM020200 14007KT 4SM -RA OVC025
     FM020500 17007KT 1SM RA OVC025
     FM020800 18009KT 1SM -RA OVC008 WS020/20035KT
     FM021400 26012KT 4SM -RA OVC015
     FM021700 29016G24KT P6SM BKN050
     FM022000 31024G35KT P6SM BKN090=

USA.gov is the U.S. government's official web portal to all federal, state and local government web resources and services.